Time;durP1;ratioP1;P1;durP2;ratioP2;P2;SDS_P1;SDS_P2;PMS_P1;PMS_P2;Temp;Humidity;BMP_temperature;BMP_pressure;BME280_temperature;BME280_humidity;BME280_pressure;Samples;Min_cycle;Max_cycle;Signal;HPM_P1;HPM_P2
2023/07/06 00:00:47;;;;;;;8.20;5.10;;;16.20;79.00;;;;;;5075733;28;20064;-64
2023/07/06 00:03:16;;;;;;;9.80;5.72;;;16.20;79.00;;;;;;5056886;28;20509;-64
2023/07/06 00:05:44;;;;;;;9.50;5.72;;;16.10;79.00;;;;;;5057219;28;20438;-64
2023/07/06 00:08:14;;;;;;;9.10;5.40;;;16.10;79.00;;;;;;5049559;28;20040;-64
2023/07/06 00:10:43;;;;;;;9.38;5.55;;;16.10;79.00;;;;;;5068577;28;20086;-64
2023/07/06 00:13:11;;;;;;;9.82;5.85;;;16.10;79.10;;;;;;5072533;28;20082;-64
2023/07/06 00:15:37;;;;;;;9.82;5.20;;;16.10;79.10;;;;;;5075967;28;20357;-64
2023/07/06 00:18:04;;;;;;;9.45;5.07;;;16.10;79.10;;;;;;5073849;28;20074;-64
2023/07/06 00:20:32;;;;;;;9.07;5.40;;;16.10;79.10;;;;;;5075595;28;20032;-64
2023/07/06 00:23:01;;;;;;;9.15;5.65;;;16.10;79.20;;;;;;5072577;28;20472;-64
2023/07/06 00:25:26;;;;;;;9.10;5.55;;;16.10;79.20;;;;;;5055812;28;20405;-64
2023/07/06 00:27:58;;;;;;;11.73;5.60;;;16.00;79.20;;;;;;5074955;28;20142;-64
2023/07/06 00:30:40;;;;;;;10.20;5.47;;;16.10;79.30;;;;;;5056361;28;20031;-64
2023/07/06 00:33:13;;;;;;;10.68;5.60;;;16.10;79.30;;;;;;5049141;28;20016;-64
2023/07/06 00:35:42;;;;;;;8.63;5.22;;;16.10;79.40;;;;;;5070741;28;20108;-64
2023/07/06 00:38:11;;;;;;;8.85;5.57;;;16.10;79.40;;;;;;5056995;28;20036;-64
2023/07/06 00:40:42;;;;;;;9.30;5.22;;;16.10;79.50;;;;;;5058258;28;20116;-64
2023/07/06 00:43:15;;;;;;;12.00;5.47;;;16.10;79.50;;;;;;5056530;28;20016;-64
2023/07/06 00:45:44;;;;;;;9.77;5.95;;;16.10;79.50;;;;;;5057706;28;20036;-64
2023/07/06 00:48:48;;;;;;;9.52;5.65;;;16.10;79.60;;;;;;5057012;28;20079;-64
2023/07/06 00:51:29;;;;;;;9.00;5.22;;;16.10;79.70;;;;;;5055738;28;20083;-64
2023/07/06 00:54:01;;;;;;;9.25;5.65;;;16.10;79.70;;;;;;5072570;28;20046;-64
2023/07/06 00:56:30;;;;;;;9.23;5.65;;;16.10;79.70;;;;;;5057746;28;20453;-64
2023/07/06 00:59:05;;;;;;;9.38;5.50;;;16.20;79.80;;;;;;5056837;28;20028;-64
2023/07/06 01:01:38;;;;;;;9.40;5.63;;;16.10;79.80;;;;;;5075082;28;20033;-65
2023/07/06 01:04:08;;;;;;;8.88;5.72;;;16.10;79.90;;;;;;5049602;28;20024;-64
2023/07/06 01:06:39;;;;;;;9.57;5.38;;;16.20;79.90;;;;;;5071813;28;20048;-64
2023/07/06 01:09:06;;;;;;;9.75;5.80;;;16.10;79.90;;;;;;5074002;28;20354;-64
2023/07/06 01:11:35;;;;;;;9.93;5.90;;;16.20;80.00;;;;;;5057166;28;20054;-64
2023/07/06 01:14:02;;;;;;;9.35;5.28;;;16.10;79.90;;;;;;5074165;28;20035;-64
2023/07/06 01:16:37;;;;;;;10.43;6.18;;;16.10;79.90;;;;;;5056461;28;20021;-64
2023/07/06 01:19:36;;;;;;;10.98;6.60;;;16.10;79.90;;;;;;5072970;28;20445;-64
2023/07/06 01:22:23;;;;;;;9.73;5.60;;;16.20;80.00;;;;;;5074209;28;20125;-64
2023/07/06 01:25:09;;;;;;;10.30;6.13;;;16.10;79.90;;;;;;5069488;28;20046;-64
2023/07/06 01:28:07;;;;;;;10.10;5.68;;;16.10;79.90;;;;;;5054885;28;20418;-64
2023/07/06 01:30:54;;;;;;;10.38;5.63;;;16.10;80.00;;;;;;5051566;28;20028;-64
2023/07/06 01:33:28;;;;;;;12.40;6.43;;;16.10;80.00;;;;;;5055283;28;20054;-64
2023/07/06 01:36:12;;;;;;;11.45;5.82;;;16.10;80.10;;;;;;5056153;28;20047;-64
2023/07/06 01:38:38;;;;;;;10.57;6.13;;;16.10;80.10;;;;;;5073056;28;20346;-64
2023/07/06 01:41:06;;;;;;;10.10;5.68;;;16.10;80.10;;;;;;5056584;28;20034;-64
2023/07/06 01:43:33;;;;;;;9.77;6.25;;;16.10;80.00;;;;;;5050080;28;20454;-64
2023/07/06 01:45:58;;;;;;;12.00;6.13;;;16.10;80.00;;;;;;5056853;28;20334;-64
2023/07/06 01:48:24;;;;;;;9.20;5.82;;;16.00;80.00;;;;;;5055334;28;20021;-64
2023/07/06 01:50:59;;;;;;;10.95;6.20;;;16.10;80.10;;;;;;5056462;28;20177;-64
2023/07/06 01:53:58;;;;;;;9.57;6.07;;;16.00;80.10;;;;;;5042654;28;20092;-64
2023/07/06 01:56:48;;;;;;;12.13;6.43;;;16.00;80.00;;;;;;5073137;28;20021;-64
2023/07/06 01:59:18;;;;;;;12.38;6.20;;;16.00;80.00;;;;;;5046411;28;20048;-64
2023/07/06 02:01:50;;;;;;;10.00;6.28;;;16.00;80.10;;;;;;5039678;28;20045;-64
2023/07/06 02:04:20;;;;;;;;;;;16.00;80.10;;;;;;5073058;28;20488;-64
2023/07/06 02:06:53;;;;;;;8.95;5.82;;;16.00;80.00;;;;;;5072908;28;19915;-64
2023/07/06 02:09:19;;;;;;;10.88;6.65;;;16.00;80.10;;;;;;5073153;28;20027;-64
2023/07/06 02:11:45;;;;;;;10.68;7.00;;;15.90;80.10;;;;;;5056128;28;20032;-64
2023/07/06 02:14:11;;;;;;;11.60;6.75;;;16.00;80.10;;;;;;5030178;28;20140;-64
2023/07/06 02:16:37;;;;;;;11.60;6.93;;;16.00;80.20;;;;;;5069822;28;20119;-64
2023/07/06 02:19:03;;;;;;;10.93;6.50;;;16.00;80.20;;;;;;5054483;28;20132;-64
2023/07/06 02:21:32;;;;;;;13.32;6.15;;;16.00;80.20;;;;;;5056139;28;20350;-64
2023/07/06 02:23:57;;;;;;;11.23;6.53;;;16.00;80.20;;;;;;5054659;28;20086;-64
2023/07/06 02:26:23;;;;;;;11.80;7.20;;;16.00;80.30;;;;;;5056060;28;20028;-64
2023/07/06 02:28:49;;;;;;;15.02;7.30;;;16.00;80.40;;;;;;5073319;28;20149;-64
2023/07/06 02:31:15;;;;;;;12.80;6.10;;;16.00;80.40;;;;;;5072785;28;20032;-64
2023/07/06 02:33:42;;;;;;;12.60;6.90;;;16.00;80.40;;;;;;5037411;28;20044;-64
2023/07/06 02:36:07;;;;;;;9.43;6.63;;;16.00;80.40;;;;;;5071182;28;20114;-64
2023/07/06 02:38:34;;;;;;;11.70;6.55;;;16.00;80.50;;;;;;5039550;28;20416;-64
2023/07/06 02:41:04;;;;;;;9.75;6.13;;;16.10;80.50;;;;;;5071643;28;20372;-64
2023/07/06 02:43:30;;;;;;;10.02;6.35;;;16.00;80.50;;;;;;5066807;28;20029;-64
2023/07/06 02:45:56;;;;;;;10.40;6.53;;;16.10;80.60;;;;;;5072954;28;20446;-64
2023/07/06 02:48:24;;;;;;;13.48;7.95;;;16.10;80.60;;;;;;5073155;28;20020;-64
2023/07/06 02:50:51;;;;;;;10.60;6.28;;;16.10;80.60;;;;;;5054460;28;20037;-64
2023/07/06 02:53:18;;;;;;;10.77;6.30;;;16.10;80.50;;;;;;5073605;28;20376;-64
2023/07/06 02:55:48;;;;;;;10.73;6.90;;;16.10;80.60;;;;;;5056433;28;20032;-64
2023/07/06 02:58:15;;;;;;;11.90;6.57;;;16.10;80.60;;;;;;5075759;28;20082;-64
2023/07/06 03:00:41;;;;;;;10.50;6.03;;;16.10;80.60;;;;;;5074571;28;20055;-64
2023/07/06 03:03:08;;;;;;;10.52;6.25;;;16.10;80.60;;;;;;5047410;28;20044;-64
2023/07/06 03:05:37;;;;;;;11.52;6.07;;;16.10;80.60;;;;;;5058952;28;20057;-64
2023/07/06 03:08:05;;;;;;;9.65;6.00;;;16.10;80.50;;;;;;5076728;28;20039;-64
2023/07/06 03:10:32;;;;;;;11.65;6.00;;;16.10;80.50;;;;;;5076109;28;20063;-64
2023/07/06 03:12:59;;;;;;;9.82;5.35;;;16.10;80.50;;;;;;5058032;28;20035;-64
2023/07/06 03:15:25;;;;;;;11.77;6.03;;;16.10;80.50;;;;;;5041298;28;20361;-64
2023/07/06 03:17:51;;;;;;;9.85;5.72;;;16.10;80.50;;;;;;5042455;28;20044;-64
2023/07/06 03:20:19;;;;;;;12.13;5.95;;;16.10;80.50;;;;;;5075936;28;20028;-64
2023/07/06 03:22:54;;;;;;;10.50;6.00;;;16.10;80.50;;;;;;5058471;28;20468;-64
2023/07/06 03:25:25;;;;;;;10.52;5.68;;;16.10;80.40;;;;;;5057346;28;20099;-64
2023/07/06 03:27:51;;;;;;;12.18;5.25;;;16.10;80.40;;;;;;5058661;28;20029;-64
2023/07/06 03:30:21;;;;;;;10.50;5.20;;;16.10;80.40;;;;;;5075802;28;20028;-64
2023/07/06 03:32:46;;;;;;;10.18;4.97;;;16.00;80.40;;;;;;5058802;28;20060;-64
2023/07/06 03:35:13;;;;;;;11.88;6.10;;;16.10;80.60;;;;;;5055579;28;20465;-64
2023/07/06 03:37:42;;;;;;;13.02;4.97;;;16.00;80.40;;;;;;5056198;28;20025;-64
2023/07/06 03:40:13;;;;;;;10.38;5.03;;;16.00;80.40;;;;;;5058160;28;20016;-64
2023/07/06 03:42:44;;;;;;;10.93;4.97;;;16.00;80.40;;;;;;5043712;28;20020;-64
2023/07/06 03:45:11;;;;;;;10.15;5.15;;;16.00;80.40;;;;;;5058157;28;20025;-64
2023/07/06 03:47:38;;;;;;;11.40;5.13;;;16.10;80.40;;;;;;5052805;28;20064;-64
2023/07/06 03:50:09;;;;;;;11.32;5.10;;;16.00;80.20;;;;;;5072774;28;20053;-64
2023/07/06 03:52:37;;;;;;;8.45;4.72;;;16.00;80.30;;;;;;5063419;28;20020;-64
2023/07/06 03:55:04;;;;;;;10.38;4.75;;;16.00;80.20;;;;;;5074723;28;20032;-64
2023/07/06 03:57:31;;;;;;;8.63;4.85;;;16.00;80.20;;;;;;5055405;28;20075;-64
2023/07/06 03:59:56;;;;;;;11.73;5.13;;;16.00;80.20;;;;;;5056614;28;20024;-64
2023/07/06 04:02:22;;;;;;;10.38;5.38;;;16.00;80.20;;;;;;5074775;28;20111;-64
2023/07/06 04:04:48;;;;;;;8.52;4.22;;;16.00;80.10;;;;;;5074706;28;20044;-64
2023/07/06 04:07:14;;;;;;;8.30;4.63;;;16.00;80.10;;;;;;5072579;28;20024;-64
2023/07/06 04:09:41;;;;;;;10.85;4.63;;;16.00;80.10;;;;;;5057094;28;20040;-64
2023/07/06 04:12:07;;;;;;;9.57;4.57;;;16.00;80.10;;;;;;5073870;28;20024;-64
2023/07/06 04:14:34;;;;;;;8.02;4.72;;;16.00;80.00;;;;;;5057814;28;20073;-64
2023/07/06 04:17:00;;;;;;;9.40;4.35;;;16.00;80.00;;;;;;5074348;28;20028;-64
2023/07/06 04:19:25;;;;;;;10.00;4.15;;;16.00;80.00;;;;;;5072511;28;20036;-64
2023/07/06 04:21:52;;;;;;;8.38;4.68;;;16.00;80.00;;;;;;5074936;28;20036;-64
2023/07/06 04:24:18;;;;;;;11.02;4.38;;;16.00;79.90;;;;;;5047910;28;20078;-64
2023/07/06 04:26:47;;;;;;;8.75;3.95;;;16.00;79.90;;;;;;5052371;28;20099;-64
2023/07/06 04:29:14;;;;;;;10.70;4.63;;;16.00;79.90;;;;;;5055002;28;20024;-64
2023/07/06 04:31:41;;;;;;;8.82;4.72;;;16.00;79.90;;;;;;5037950;28;20032;-63
2023/07/06 04:34:07;;;;;;;8.82;4.10;;;16.00;79.80;;;;;;5073347;28;20119;-64
2023/07/06 04:36:33;;;;;;;9.45;4.80;;;16.10;79.90;;;;;;5071862;28;20035;-64
2023/07/06 04:38:59;;;;;;;9.57;4.60;;;16.10;79.80;;;;;;5074122;28;20040;-64
2023/07/06 04:41:27;;;;;;;9.63;4.35;;;16.10;79.80;;;;;;5039899;28;20032;-64
2023/07/06 04:43:53;;;;;;;9.32;4.20;;;16.10;79.80;;;;;;5055329;28;20056;-64
2023/07/06 04:46:22;;;;;;;9.85;4.63;;;16.10;79.80;;;;;;5071730;28;20118;-64
2023/07/06 04:48:48;;;;;;;9.98;4.35;;;16.10;79.70;;;;;;5075250;28;20338;-64
2023/07/06 04:51:15;;;;;;;10.15;4.72;;;16.10;79.70;;;;;;5055646;28;20135;-64
2023/07/06 04:53:42;;;;;;;10.70;4.57;;;16.10;80.30;;;;;;5036231;28;20369;-63
2023/07/06 04:56:08;;;;;;;8.32;4.30;;;16.20;79.60;;;;;;5053966;28;20020;-64
2023/07/06 04:58:34;;;;;;;11.23;4.88;;;16.10;79.50;;;;;;5057804;28;20020;-64
2023/07/06 05:01:05;;;;;;;9.57;4.65;;;16.20;79.60;;;;;;5052549;28;20033;-64
2023/07/06 05:03:31;;;;;;;11.52;4.47;;;16.20;79.70;;;;;;5056621;28;20102;-64
2023/07/06 05:06:03;;;;;;;8.13;4.13;;;16.20;79.60;;;;;;5057420;28;20366;-64
2023/07/06 05:08:29;;;;;;;8.90;4.55;;;16.20;79.60;;;;;;5075147;28;20082;-64
2023/07/06 05:10:55;;;;;;;10.52;4.43;;;16.20;79.50;;;;;;5057247;28;20025;-64
2023/07/06 05:13:22;;;;;;;11.45;5.32;;;16.20;79.50;;;;;;5074357;28;20025;-64
2023/07/06 05:15:51;;;;;;;9.93;4.47;;;16.20;79.50;;;;;;5055806;28;20036;-64
2023/07/06 05:18:21;;;;;;;10.90;4.72;;;16.20;79.50;;;;;;5074615;28;20050;-64
2023/07/06 05:20:49;;;;;;;9.70;4.47;;;16.20;79.50;;;;;;5074890;28;20379;-64
2023/07/06 05:23:17;;;;;;;12.45;4.93;;;16.20;79.50;;;;;;5074256;28;20048;-64
2023/07/06 05:25:43;;;;;;;10.75;4.75;;;16.20;79.50;;;;;;5074821;28;20562;-64
2023/07/06 05:28:11;;;;;;;9.88;4.30;;;16.20;79.50;;;;;;5068731;28;20032;-64
2023/07/06 05:30:42;;;;;;;10.75;4.60;;;16.30;79.60;;;;;;5069261;28;20028;-64
2023/07/06 05:33:08;;;;;;;10.57;4.70;;;16.30;79.50;;;;;;5067137;28;20183;-65
2023/07/06 05:35:35;;;;;;;8.98;4.50;;;16.30;79.50;;;;;;5067212;28;20029;-64
2023/07/06 05:38:01;;;;;;;12.60;5.13;;;16.30;79.30;;;;;;5051966;28;20121;-64
2023/07/06 05:40:27;;;;;;;11.20;5.00;;;16.40;79.20;;;;;;5068597;28;20121;-65
2023/07/06 05:42:57;;;;;;;13.27;4.85;;;16.40;79.20;;;;;;5068604;28;20036;-63
2023/07/06 05:45:23;;;;;;;12.27;5.15;;;16.50;79.20;;;;;;5051979;28;20039;-63
2023/07/06 05:47:49;;;;;;;12.40;5.05;;;16.50;79.10;;;;;;5053143;28;20028;-63
2023/07/06 05:50:14;;;;;;;10.38;4.80;;;16.60;79.00;;;;;;5052033;28;20036;-64
2023/07/06 05:52:41;;;;;;;9.70;4.40;;;16.70;79.00;;;;;;5051118;28;20039;-64
2023/07/06 05:55:07;;;;;;;11.70;5.78;;;16.70;78.90;;;;;;5048725;28;20090;-64
2023/07/06 05:57:33;;;;;;;10.68;5.10;;;16.70;78.80;;;;;;5067526;28;20315;-63
2023/07/06 05:59:59;;;;;;;14.05;5.65;;;16.80;78.80;;;;;;5044176;28;20043;-64
2023/07/06 06:02:26;;;;;;;12.75;5.55;;;16.80;78.70;;;;;;5067564;28;20016;-64
2023/07/06 06:04:52;;;;;;;12.48;6.35;;;16.80;78.70;;;;;;5032353;28;20025;-64
2023/07/06 06:07:19;;;;;;;11.55;5.95;;;16.80;78.60;;;;;;5062400;28;20051;-64
2023/07/06 06:09:47;;;;;;;17.45;7.30;;;16.90;78.70;;;;;;5065374;28;20118;-64
2023/07/06 06:12:18;;;;;;;14.20;6.65;;;16.90;78.70;;;;;;5068602;28;20331;-64
2023/07/06 06:14:48;;;;;;;15.45;6.90;;;16.90;78.70;;;;;;5068291;28;20029;-64
2023/07/06 06:17:16;;;;;;;17.60;8.20;;;16.90;78.70;;;;;;5043898;28;20039;-64
2023/07/06 06:19:42;;;;;;;14.20;6.93;;;16.80;78.70;;;;;;5065818;28;20032;-63
2023/07/06 06:22:11;;;;;;;14.77;7.55;;;16.80;78.80;;;;;;5066637;28;20516;-64
2023/07/06 06:24:37;;;;;;;18.10;7.88;;;16.80;78.80;;;;;;5067910;28;20466;-64
2023/07/06 06:27:04;;;;;;;12.93;6.95;;;16.90;78.80;;;;;;5066935;28;20024;-63
2023/07/06 06:29:32;;;;;;;15.30;7.40;;;16.90;78.80;;;;;;5067826;28;20029;-64
2023/07/06 06:31:59;;;;;;;15.65;7.70;;;17.00;78.70;;;;;;5033987;28;20119;-64
2023/07/06 06:34:25;;;;;;;13.93;6.82;;;17.10;78.70;;;;;;5052003;28;20033;-64
2023/07/06 06:36:51;;;;;;;12.45;6.72;;;17.20;78.70;;;;;;5049458;28;20468;-64
2023/07/06 06:39:17;;;;;;;13.68;7.18;;;17.30;78.50;;;;;;5068731;28;20134;-64
2023/07/06 06:41:44;;;;;;;12.50;7.00;;;17.40;78.40;;;;;;5052383;28;20036;-64
2023/07/06 06:44:11;;;;;;;14.50;8.00;;;17.40;78.30;;;;;;5067317;28;20021;-64
2023/07/06 06:46:37;;;;;;;14.10;7.80;;;17.50;78.30;;;;;;5067742;28;20029;-65
2023/07/06 06:49:02;;;;;;;12.90;7.75;;;17.50;78.20;;;;;;5068592;28;20028;-65
2023/07/06 06:51:29;;;;;;;15.52;8.32;;;17.60;78.20;;;;;;5048656;28;20063;-64
2023/07/06 06:53:55;;;;;;;18.70;8.98;;;17.60;78.10;;;;;;5045615;28;20104;-64
2023/07/06 06:56:22;;;;;;;15.85;8.27;;;17.60;78.00;;;;;;5052633;28;20097;-64
2023/07/06 06:58:48;;;;;;;15.75;9.35;;;17.70;78.10;;;;;;5070159;28;20386;-64
2023/07/06 07:01:15;;;;;;;15.18;9.93;;;17.70;78.00;;;;;;5073698;28;20540;-64
2023/07/06 07:03:40;;;;;;;16.73;9.80;;;17.70;78.00;;;;;;5073578;28;20465;-64
2023/07/06 07:06:13;;;;;;;19.17;10.57;;;17.70;77.90;;;;;;5073636;28;20085;-64
2023/07/06 07:08:44;;;;;;;18.67;9.98;;;17.70;77.90;;;;;;5042905;28;20021;-64
2023/07/06 07:11:11;;;;;;;15.38;9.32;;;17.80;77.90;;;;;;5073776;28;20051;-64
2023/07/06 07:13:38;;;;;;;16.80;9.43;;;17.90;77.90;;;;;;5073751;28;20056;-64
2023/07/06 07:16:05;;;;;;;17.45;10.00;;;17.90;77.80;;;;;;5072428;28;20039;-64
2023/07/06 07:18:32;;;;;;;14.90;9.07;;;18.10;77.60;;;;;;5054641;28;20032;-65
2023/07/06 07:20:58;;;;;;;17.38;9.95;;;18.30;77.20;;;;;;5051558;28;20024;-65
2023/07/06 07:23:26;;;;;;;16.65;9.20;;;18.50;77.10;;;;;;5066445;28;20334;-65
2023/07/06 07:25:52;;;;;;;16.17;10.27;;;18.60;76.60;;;;;;5052707;28;20047;-65
2023/07/06 07:28:18;;;;;;;16.98;10.13;;;18.80;76.20;;;;;;5041250;28;20319;-64
2023/07/06 07:30:56;;;;;;;18.38;10.75;;;18.70;76.00;;;;;;5070388;28;20037;-65
2023/07/06 07:33:23;;;;;;;14.32;9.60;;;18.70;76.10;;;;;;5049882;28;20957;-64
2023/07/06 07:35:51;;;;;;;15.20;10.55;;;18.70;76.20;;;;;;5050019;28;20353;-64
2023/07/06 07:38:19;;;;;;;17.02;9.88;;;18.70;76.20;;;;;;5067716;28;20031;-64
2023/07/06 07:40:56;;;;;;;14.88;10.25;;;18.80;76.10;;;;;;5053229;28;20032;-65
2023/07/06 07:43:27;;;;;;;15.57;9.93;;;18.80;75.90;;;;;;5052360;28;20108;-65
2023/07/06 07:46:03;;;;;;;14.82;10.10;;;18.80;75.80;;;;;;5054405;28;20044;-65
2023/07/06 07:48:32;;;;;;;15.52;9.98;;;18.80;75.80;;;;;;5053642;28;20357;-65
2023/07/06 07:51:03;;;;;;;16.00;10.15;;;18.80;75.90;;;;;;5053045;28;20038;-65
2023/07/06 07:53:33;;;;;;;15.07;9.60;;;18.70;76.00;;;;;;5072187;28;20032;-65
2023/07/06 07:55:59;;;;;;;17.13;9.90;;;18.70;76.10;;;;;;5070158;28;20295;-65
2023/07/06 07:58:26;;;;;;;14.32;9.30;;;18.80;76.20;;;;;;5069157;28;20029;-64
2023/07/06 08:00:55;;;;;;;15.30;9.13;;;18.90;76.00;;;;;;5068123;28;20040;-65
2023/07/06 08:03:22;;;;;;;18.23;10.35;;;19.20;75.50;;;;;;5070145;28;20048;-65
2023/07/06 08:05:50;;;;;;;16.52;10.50;;;19.40;75.00;;;;;;5071531;28;20071;-65
2023/07/06 08:08:16;;;;;;;16.58;10.55;;;19.50;74.50;;;;;;5070542;28;20020;-64
2023/07/06 08:10:42;;;;;;;15.60;10.32;;;19.40;74.30;;;;;;5054317;28;20080;-65
2023/07/06 08:13:09;;;;;;;19.20;11.82;;;19.40;74.40;;;;;;5070301;28;20441;-65
2023/07/06 08:15:38;;;;;;;19.98;11.68;;;19.30;74.40;;;;;;5069921;28;20036;-66
2023/07/06 08:18:06;;;;;;;14.93;10.00;;;19.30;74.60;;;;;;5051783;28;20021;-66
2023/07/06 08:20:35;;;;;;;16.25;10.13;;;19.50;74.40;;;;;;5052410;28;20111;-66
2023/07/06 08:23:04;;;;;;;17.30;9.85;;;19.70;73.80;;;;;;5070610;28;20023;-66
2023/07/06 08:25:38;;;;;;;18.67;10.90;;;19.70;73.40;;;;;;5064869;28;20028;-66
2023/07/06 08:28:05;;;;;;;14.70;10.18;;;19.70;73.40;;;;;;5069518;28;20036;-66
2023/07/06 08:30:36;;;;;;;14.27;9.68;;;19.70;73.40;;;;;;5052840;28;20029;-66
2023/07/06 08:33:02;;;;;;;13.00;9.18;;;19.70;73.40;;;;;;5069001;28;20036;-66
2023/07/06 08:35:29;;;;;;;12.52;8.90;;;19.80;73.30;;;;;;5069153;28;20036;-65
2023/07/06 08:37:56;;;;;;;14.40;8.88;;;19.90;72.80;;;;;;5070872;28;20357;-65
2023/07/06 08:40:26;;;;;;;15.27;9.38;;;20.00;72.40;;;;;;5051973;28;20453;-66
2023/07/06 08:42:55;;;;;;;15.82;9.60;;;19.90;72.50;;;;;;5068191;28;20017;-66
2023/07/06 08:45:23;;;;;;;13.07;8.85;;;19.80;72.70;;;;;;5067401;28;20089;-66
2023/07/06 08:47:51;;;;;;;14.30;9.45;;;19.90;72.80;;;;;;5042435;28;20291;-66
2023/07/06 08:50:26;;;;;;;13.82;9.15;;;20.10;72.20;;;;;;5067819;28;20381;-66
2023/07/06 08:52:53;;;;;;;13.55;8.75;;;20.10;71.80;;;;;;5068764;28;20429;-66
2023/07/06 08:55:19;;;;;;;14.70;9.30;;;20.20;71.80;;;;;;5067521;28;20033;-66
2023/07/06 08:57:46;;;;;;;14.20;9.43;;;20.30;71.50;;;;;;5068979;28;20046;-66
2023/07/06 09:00:27;;;;;;;15.23;9.82;;;20.60;71.10;;;;;;5070696;28;20028;-67
2023/07/06 09:02:57;;;;;;;;;;;21.20;70.70;;;;;;5047562;28;20045;-66
2023/07/06 09:05:31;;;;;;;13.82;8.60;;;21.40;69.70;;;;;;5047667;28;20264;-66
2023/07/06 09:07:58;;;;;;;12.50;8.52;;;21.40;69.00;;;;;;5050260;28;20032;-66
2023/07/06 09:10:28;;;;;;;12.52;8.90;;;21.40;68.70;;;;;;5039207;28;20420;-66
2023/07/06 09:12:56;;;;;;;12.60;8.47;;;21.30;68.50;;;;;;5048281;28;20030;-65
2023/07/06 09:15:33;;;;;;;15.40;8.75;;;21.20;68.90;;;;;;5047807;28;20020;-66
2023/07/06 09:18:03;;;;;;;13.15;7.63;;;21.10;68.50;;;;;;5050211;28;20027;-66
2023/07/06 09:20:29;;;;;;;13.70;9.07;;;20.90;68.90;;;;;;5063569;28;20330;-66
2023/07/06 09:22:55;;;;;;;14.07;7.65;;;20.80;68.90;;;;;;5049492;28;20017;-66
2023/07/06 09:25:36;;;;;;;11.68;8.25;;;20.70;69.10;;;;;;5049020;28;20020;-67
2023/07/06 09:28:07;;;;;;;13.00;7.82;;;20.80;68.90;;;;;;5046577;28;20086;-66
2023/07/06 09:30:37;;;;;;;13.85;7.65;;;21.00;68.60;;;;;;5048744;28;20036;-66
2023/07/06 09:33:05;;;;;;;11.57;8.20;;;21.30;68.00;;;;;;5050331;28;20086;-65
2023/07/06 09:35:35;;;;;;;13.40;7.63;;;21.40;67.50;;;;;;5047320;28;20041;-65
2023/07/06 09:38:03;;;;;;;12.63;7.55;;;21.60;67.10;;;;;;5028325;28;20607;-65
2023/07/06 09:40:31;;;;;;;12.90;7.57;;;21.90;66.80;;;;;;5049413;28;20086;-65
2023/07/06 09:42:57;;;;;;;12.23;8.05;;;21.90;66.40;;;;;;5049475;28;20346;-65
2023/07/06 09:45:27;;;;;;;13.77;7.22;;;21.90;66.10;;;;;;5047648;28;20469;-64
2023/07/06 09:48:07;;;;;;;13.43;6.53;;;22.00;66.00;;;;;;5048395;28;20017;-65
2023/07/06 09:50:43;;;;;;;9.90;6.28;;;22.30;65.40;;;;;;5049521;28;20373;-66
2023/07/06 09:53:21;;;;;;;11.45;7.72;;;22.50;64.60;;;;;;5048566;28;20083;-66
2023/07/06 09:55:47;;;;;;;10.52;6.25;;;22.70;64.00;;;;;;5031632;28;20091;-66
2023/07/06 09:58:23;;;;;;;12.85;6.70;;;22.90;63.60;;;;;;5049456;28;20056;-66
2023/07/06 10:00:57;;;;;;;11.02;6.10;;;23.10;62.80;;;;;;5049157;28;20044;-66
2023/07/06 10:03:32;;;;;;;9.15;5.13;;;23.20;62.30;;;;;;5055506;28;20033;-66
2023/07/06 10:06:27;;;;;;;9.65;5.80;;;23.20;61.90;;;;;;5050960;28;20029;-66
2023/07/06 10:08:58;;;;;;;8.13;5.18;;;23.30;61.20;;;;;;5052393;28;20413;-66
2023/07/06 10:11:43;;;;;;;8.73;5.65;;;23.30;61.40;;;;;;5066396;28;20036;-66
2023/07/06 10:14:48;;;;;;;10.05;5.43;;;23.20;61.60;;;;;;5048760;28;20365;-66
2023/07/06 10:17:34;;;;;;;11.40;6.13;;;23.20;61.40;;;;;;5048539;28;20029;-66
2023/07/06 10:20:19;;;;;;;9.40;5.15;;;23.00;61.70;;;;;;5067983;28;20048;-66
2023/07/06 10:22:58;;;;;;;9.80;6.13;;;23.00;61.40;;;;;;5071480;28;20021;-66
2023/07/06 10:25:33;;;;;;;11.98;5.65;;;23.10;61.20;;;;;;5048751;28;20060;-66
2023/07/06 10:28:14;;;;;;;10.25;6.70;;;23.00;61.30;;;;;;5065709;28;20116;-66
2023/07/06 10:30:49;;;;;;;10.13;5.95;;;23.10;60.70;;;;;;5048883;28;20165;-66
2023/07/06 10:33:54;;;;;;;11.30;5.65;;;23.10;60.80;;;;;;5061902;28;20036;-66
2023/07/06 10:36:25;;;;;;;9.45;4.68;;;23.40;60.10;;;;;;5067674;28;20335;-66
2023/07/06 10:38:51;;;;;;;10.38;4.75;;;23.60;59.70;;;;;;5068178;28;20361;-66
2023/07/06 10:41:21;;;;;;;10.13;5.25;;;23.90;59.50;;;;;;5049992;28;20025;-66
2023/07/06 10:43:49;;;;;;;10.23;5.20;;;24.10;59.10;;;;;;5066101;28;20024;-68
2023/07/06 10:46:35;;;;;;;8.68;4.63;;;24.30;58.10;;;;;;5046300;28;20096;-66
2023/07/06 10:49:19;;;;;;;11.00;4.90;;;24.00;57.30;;;;;;5067435;28;20432;-67
2023/07/06 10:51:52;;;;;;;8.65;4.82;;;23.80;57.60;;;;;;5071689;28;20032;-67
2023/07/06 10:54:20;;;;;;;11.68;5.00;;;23.70;58.30;;;;;;5036597;28;20028;-67
2023/07/06 10:57:13;;;;;;;8.80;4.35;;;23.80;58.10;;;;;;5054359;28;20040;-66
2023/07/06 10:59:48;;;;;;;7.95;4.32;;;24.10;57.90;;;;;;5069314;28;20436;-67
2023/07/06 11:02:24;;;;;;;9.10;4.65;;;24.30;57.60;;;;;;5052330;28;20059;-66
2023/07/06 11:05:10;;;;;;;8.23;4.20;;;24.40;57.20;;;;;;5032170;28;20044;-66
2023/07/06 11:07:50;;;;;;;11.20;4.80;;;24.30;56.80;;;;;;5033713;28;20022;-66
2023/07/06 11:10:22;;;;;;;8.43;3.88;;;24.40;56.40;;;;;;5030705;28;20373;-66
2023/07/06 11:12:58;;;;;;;7.65;3.50;;;24.60;56.50;;;;;;5033805;28;20128;-67
2023/07/06 11:15:35;;;;;;;7.88;3.28;;;24.70;56.00;;;;;;5036882;28;20030;-66
2023/07/06 11:18:24;;;;;;;7.53;3.67;;;24.80;55.50;;;;;;5036195;28;20423;-66
2023/07/06 11:20:56;;;;;;;8.80;3.80;;;24.60;55.30;;;;;;5026307;28;20049;-67
2023/07/06 11:23:50;;;;;;;10.10;4.55;;;24.30;55.80;;;;;;5037361;28;20029;-66
2023/07/06 11:26:28;;;;;;;7.20;3.50;;;24.20;56.00;;;;;;5034238;28;20120;-66
2023/07/06 11:28:54;;;;;;;8.50;3.45;;;24.40;55.50;;;;;;5035490;28;20104;-66
2023/07/06 11:31:47;;;;;;;6.05;3.10;;;24.60;55.30;;;;;;5033145;28;20473;-66
2023/07/06 11:34:32;;;;;;;6.60;3.08;;;24.80;54.50;;;;;;5007497;28;20390;-67
2023/07/06 11:37:16;;;;;;;6.53;3.03;;;25.00;54.10;;;;;;5030522;28;21024;-67
2023/07/06 11:39:51;;;;;;;7.95;3.90;;;25.10;53.60;;;;;;5013405;28;20038;-66
2023/07/06 11:42:46;;;;;;;6.90;3.70;;;24.90;53.30;;;;;;5030134;28;20048;-67
2023/07/06 11:45:50;;;;;;;9.90;3.65;;;24.70;53.70;;;;;;5017481;28;20076;-67
2023/07/06 11:48:49;;;;;;;7.18;3.25;;;24.50;54.10;;;;;;5030547;28;20362;-67
2023/07/06 11:51:19;;;;;;;8.77;3.50;;;24.50;54.40;;;;;;5014221;28;20084;-67
2023/07/06 11:56:32;;;;;;;6.65;3.15;;;24.20;54.20;;;;;;5030017;28;20179;-66
2023/07/06 11:59:03;;;;;;;6.05;3.15;;;24.00;54.70;;;;;;5028223;28;20029;-67
2023/07/06 12:04:02;;;;;;;9.93;4.25;;;23.90;55.00;;;;;;5056996;28;20056;-66
2023/07/06 12:06:30;;;;;;;7.43;3.80;;;24.10;54.90;;;;;;5068282;28;20063;-66
2023/07/06 12:09:01;;;;;;;8.68;3.85;;;24.20;54.50;;;;;;5072493;28;20070;-66
2023/07/06 12:11:27;;;;;;;7.18;3.38;;;24.20;54.30;;;;;;5063120;28;20028;-66
2023/07/06 12:13:56;;;;;;;6.88;3.05;;;24.10;54.40;;;;;;5037826;28;20429;-66
2023/07/06 12:16:28;;;;;;;7.05;3.50;;;23.90;54.60;;;;;;5058008;28;20036;-66
2023/07/06 12:19:07;;;;;;;7.50;3.60;;;23.80;54.70;;;;;;5037960;28;20040;-66
2023/07/06 12:21:47;;;;;;;8.93;3.90;;;23.60;54.70;;;;;;5047332;28;20055;-67
2023/07/06 12:24:16;;;;;;;7.95;4.10;;;23.40;55.20;;;;;;5053410;28;20335;-67
2023/07/06 12:26:47;;;;;;;6.90;3.42;;;23.20;55.60;;;;;;5061524;28;20098;-66
2023/07/06 12:29:17;;;;;;;7.72;3.75;;;23.00;56.10;;;;;;5057780;28;20025;-66
2023/07/06 12:31:45;;;;;;;7.50;3.83;;;22.90;56.40;;;;;;5062559;28;20431;-66
2023/07/06 12:34:25;;;;;;;8.40;3.80;;;22.80;56.60;;;;;;5051794;28;20017;-66
2023/07/06 12:36:56;;;;;;;7.28;3.60;;;22.60;56.70;;;;;;5055634;28;20438;-66
2023/07/06 12:39:23;;;;;;;7.07;3.50;;;22.50;56.90;;;;;;5055350;28;20110;-66
2023/07/06 12:41:51;;;;;;;7.47;4.10;;;22.40;57.20;;;;;;5064306;28;20044;-66
2023/07/06 12:44:18;;;;;;;6.90;3.72;;;22.40;57.60;;;;;;5045676;28;20021;-66
2023/07/06 12:46:57;;;;;;;8.15;4.22;;;22.30;57.70;;;;;;5061051;28;20020;-66
2023/07/06 12:49:23;;;;;;;7.63;3.83;;;22.20;57.80;;;;;;5039450;28;20029;-66
2023/07/06 12:51:57;;;;;;;8.30;4.18;;;22.20;58.10;;;;;;5055493;28;20039;-66
2023/07/06 12:54:28;;;;;;;8.55;4.50;;;22.10;58.20;;;;;;5068561;28;20429;-66
2023/07/06 12:57:05;;;;;;;10.48;4.53;;;21.90;58.50;;;;;;5067742;28;20041;-66
2023/07/06 12:59:36;;;;;;;9.13;4.07;;;21.80;59.00;;;;;;5067912;28;20052;-66
2023/07/06 13:02:22;;;;;;;;;;;21.60;59.40;;;;;;5068660;28;20105;-66
2023/07/06 13:04:49;;;;;;;8.45;3.47;;;21.60;59.60;;;;;;5069731;28;19923;-66